Salinas, PR (00751)

3:26 PM AST on April 25, 2015 (GMT -0400)
Bananera Costa Sur Inc. | | Change Station
CLOSE
Current Station
Personal Weather Station
Location: Santa Isabel,
Elevation: 56 ft
Nearby Weather Stations

Elev 56 ft 17.98 °N, 66.37 °W | Updated 12 seconds ago

Scattered Clouds
Scattered Clouds
86.2 °F
Feels Like 94 °F
N
7.2
Wind Variable Wind from ENE
Gusts 12.0 mph

Today
High -- | Low -- °F
--% Chance of Precip.
Yesterday
High -- | Low -- °F
Precip. -- in
6:02 AM 6:44 PM
Waxing Crescent, 48% visible
Pressure 29.90 in
Visibility 10.0 miles
Clouds Few 4000 ft
Scattered Clouds 9000 ft
Heat Index 94 °F
Dew Point 73 °F
Humidity 67%
Rainfall 0.00 in
Snow Depth Not available.
UV 6 out of 12
Pollen Not available.
Air Quality Not available.
Flu Activity Sporadic
METAR TJSJ 251856Z 06006KT 10SM FEW040 SCT090 33/22 A2990 RMK AO2 SLP125 T03280222

More Conditions Fewer Conditions

Pressure 29.90 in
Visibility 10.0 miles
Clouds Few 4000 ft
Scattered Clouds 9000 ft
Heat Index 94 °F
Dew Point 73 °F
Humidity 67%
Rainfall 0.00 in
Snow Depth Not available.
UV 6 out of 12
Pollen Not available.
Air Quality Not available.
Flu Activity Sporadic
METAR TJSJ 251856Z 06006KT 10SM FEW040 SCT090 33/22 A2990 RMK AO2 SLP125 T03280222

More Conditions Fewer Conditions

10-Day Weather Forecast

Almanac

Astronomy

Apr. 25, 2015 Rise Set
Actual Time
Civil Twilight
Nautical Twilight
Astronomical Twilight
Moon
Length of Visible Light
Length of Day
Tomorrow will be .
, % of the Moon is Illuminated

Today's Extremes

State Highs State Lows

Community

WunderPhotos

Upload Photos

1,816,781 photos uploaded!

WunderBlogs® & News

Nearby

Air Quality

  Air Quality AQ Index Pollutant
Not available.

Snow Depth

Station Depth Elevation

Earthquake Activity

City Distance Mag. Time & Date
Minimum magnitude displayed is 2.5.

Coastal Water Temperatures

Place Temperature

Stations

Nearby Weather Stations

Station Location Temp. Windchill Dew Point Humidity Wind Precip. Elev Updated Type